^^
Station Historical Data
 
Daily Summary for December 11, 2017 Units:  English    Metric   Both
« Previous Day
Next Day »
Daily Weekly Monthly Yearly Custom
  Current: High: Low: Average:
Temperature: 15.1 °F 15.1 °F 11.5 °F 13.5 °F
Dew Point: 13.9 °F 14.2 °F 9.7 °F 11.2 °F
Humidity: 95% 96% 85% 90%
Wind Speed: 0.0mph 3.5mph 0.0mph 0.6mph
Wind Gust: 0.0mph 3.5mph - -
WindCalm - - SSE
Pressure: 29.84 in 29.99 in 29.84 in -
Precipitation: 0.00 in      
Historical Graphs
 
 
Tabular Data for December 11, 2017
Time Temperature Dew Point Pressure Wind Wind Speed Wind Gust Humidity Rainfall Rate (Hourly) solar Conditions
00:02 14.5 °F 11.9 °F 29.99 in Calm     89% 0.00 in 0.0 W/m2 OVC
00:07 14.7 °F 12.0 °F 29.99 in Calm     89% 0.00 in 0.0 W/m2 OVC
00:12 14.7 °F 11.8 °F 29.99 in Calm     88% 0.00 in 0.0 W/m2 OVC
00:17 14.7 °F 12.3 °F 29.99 in Calm     90% 0.00 in 0.0 W/m2 OVC
00:22 14.7 °F 12.0 °F 29.99 in Calm     89% 0.00 in 0.0 W/m2 OVC
00:27 14.5 °F 11.9 °F 29.99 in Calm     89% 0.00 in 0.0 W/m2 OVC
00:32 14.7 °F 12.0 °F 29.98 in Calm     89% 0.00 in 0.0 W/m2 OVC
00:37 14.7 °F 12.0 °F 29.98 in Calm     89% 0.00 in 0.0 W/m2 OVC
00:42 14.4 °F 11.8 °F 29.98 in Calm     89% 0.00 in 0.0 W/m2 OVC
00:47 14.5 °F 11.9 °F 29.98 in Calm     89% 0.00 in 0.0 W/m2 OVC
00:52 14.5 °F 11.6 °F 29.97 in Calm     88% 0.00 in 0.0 W/m2 OVC
00:57 14.4 °F 11.5 °F 29.97 in Calm     88% 0.00 in 0.0 W/m2 OVC
01:04 14.0 °F 11.1 °F 29.97 in Calm     88% 0.00 in 0.0 W/m2 OVC
01:09 13.8 °F 11.2 °F 29.96 in Calm     89% 0.00 in 0.0 W/m2 OVC
01:14 13.5 °F 10.9 °F 29.96 in Calm     89% 0.00 in 0.0 W/m2 OVC
01:19 13.3 °F 10.7 °F 29.95 in Calm     89% 0.00 in 0.0 W/m2 OVC
01:31 12.6 °F 10.2 °F 29.96 in Calm     90% 0.00 in 0.0 W/m2 OVC
01:36 12.4 °F 10.0 °F 29.96 in Calm     90% 0.00 in 0.0 W/m2 OVC
01:41 12.2 °F 9.8 °F 29.96 in Calm     90% 0.00 in 0.0 W/m2 OVC
01:42 12.2 °F 9.8 °F 29.96 in Calm     90% 0.00 in 0.0 W/m2 OVC
01:47 11.8 °F 9.7 °F 29.96 in Calm     91% 0.00 in 0.0 W/m2 OVC
01:52 11.7 °F 9.8 °F 29.96 in Calm     92% 0.00 in 0.0 W/m2 OVC
01:57 11.7 °F 9.8 °F 29.96 in Calm     92% 0.00 in 0.0 W/m2 OVC
02:02 11.7 °F 10.3 °F 29.96 in Calm     94% 0.00 in 0.0 W/m2 OVC
02:12 11.7 °F 10.3 °F 29.96 in Calm     94% 0.00 in 0.0 W/m2 OVC
02:17 11.8 °F 10.4 °F 29.97 in Calm     94% 0.00 in 0.0 W/m2 OVC
02:22 11.8 °F 10.4 °F 29.97 in Calm     94% 0.00 in 0.0 W/m2 OVC
02:32 11.7 °F 10.3 °F 29.96 in Calm     94% 0.00 in 0.0 W/m2 OVC
02:37 11.7 °F 10.3 °F 29.96 in Calm     94% 0.00 in 0.0 W/m2 OVC
02:52 11.5 °F 10.3 °F 29.96 in Calm     95% 0.00 in 0.0 W/m2 OVC
02:57 11.7 °F 10.5 °F 29.96 in Calm     95% 0.00 in 0.0 W/m2 OVC
03:02 11.8 °F 10.6 °F 29.96 in Calm     95% 0.00 in 0.0 W/m2 OVC
03:07 11.7 °F 10.5 °F 29.94 in Calm     95% 0.00 in 0.0 W/m2 OVC
03:12 11.7 °F 10.5 °F 29.94 in Calm     95% 0.00 in 0.0 W/m2 OVC
03:17 11.7 °F 10.5 °F 29.93 in Calm     95% 0.00 in 0.0 W/m2 OVC
03:22 11.7 °F 10.5 °F 29.93 in Calm     95% 0.00 in 0.0 W/m2 OVC
03:27 12.2 °F 11.0 °F 29.93 in Calm     95% 0.00 in 0.0 W/m2 OVC
03:32 12.4 °F 11.0 °F 29.92 in Calm     94% 0.00 in 0.0 W/m2 OVC
03:37 12.6 °F 11.0 °F 29.92 in South 1.2 mph   93% 0.00 in 0.0 W/m2 OVC
03:42 12.6 °F 10.7 °F 29.91 in SSE 2.3 mph 2.3 mph 92% 0.00 in 0.0 W/m2 OVC
03:47 12.6 °F 10.5 °F 29.91 in SE 2.3 mph 2.3 mph 91% 0.00 in 0.0 W/m2 OVC
03:52 12.6 °F 10.2 °F 29.90 in East 2.3 mph 2.3 mph 90% 0.00 in 0.0 W/m2 OVC
03:57 12.7 °F 10.1 °F 29.90 in East 3.5 mph 3.5 mph 89% 0.00 in 0.0 W/m2 OVC
04:02 12.9 °F 10.3 °F 29.90 in East 3.5 mph 3.5 mph 89% 0.00 in 0.0 W/m2 BKN
04:07 13.1 °F 10.2 °F 29.89 in ESE 3.5 mph   88% 0.00 in 0.0 W/m2 BKN
04:12 13.1 °F 10.0 °F 29.89 in SSW 1.2 mph   87% 0.00 in 0.0 W/m2 BKN
04:17 13.1 °F 10.0 °F 29.89 in WSW 1.2 mph 1.7 mph 87% 0.00 in 0.0 W/m2 BKN
04:22 13.1 °F 9.7 °F 29.89 in WSW 1.2 mph 1.2 mph 86% 0.00 in 0.0 W/m2 BKN
04:27 13.3 °F 9.9 °F 29.89 in SW 2.3 mph 2.3 mph 86% 0.00 in 0.0 W/m2 BKN
04:32 13.5 °F 9.8 °F 29.89 in SW 2.3 mph   85% 0.00 in 0.0 W/m2 BKN
04:37 13.5 °F 10.1 °F 29.89 in SW 1.2 mph   86% 0.00 in 0.0 W/m2 BKN
04:42 13.6 °F 10.2 °F 29.89 in Calm     86% 0.00 in 0.0 W/m2 BKN
04:47 13.6 °F 10.2 °F 29.89 in Calm   0.2 mph 86% 0.00 in 0.0 W/m2 BKN
04:52 13.8 °F 10.1 °F 29.88 in SE 1.2 mph 1.2 mph 85% 0.00 in 0.0 W/m2 BKN
04:54 13.8 °F 10.4 °F 29.88 in ESE 1.2 mph   86% 0.00 in 0.0 W/m2 BKN
04:59 13.8 °F 10.4 °F 29.88 in ESE 1.2 mph 1.2 mph 86% 0.00 in 0.0 W/m2 BKN
05:04 13.8 °F 10.4 °F 29.88 in ESE 1.2 mph 1.2 mph 86% 0.00 in 0.0 W/m2 OVC
05:09 13.8 °F 10.4 °F 29.87 in East 2.3 mph   86% 0.00 in 0.0 W/m2 OVC
05:14 14.0 °F 10.6 °F 29.87 in East 2.3 mph 2.3 mph 86% 0.00 in 0.0 W/m2 OVC
05:19 14.0 °F 10.6 °F 29.86 in East 2.3 mph   86% 0.00 in 0.0 W/m2 OVC
05:24 14.0 °F 10.6 °F 29.86 in ESE 2.3 mph   86% 0.00 in 0.0 W/m2 OVC
05:29 14.2 °F 10.8 °F 29.87 in SSE 1.2 mph   86% 0.00 in 0.0 W/m2 OVC
05:34 14.2 °F 10.8 °F 29.87 in SSW 1.2 mph 1.2 mph 86% 0.00 in 0.0 W/m2 OVC
05:39 14.4 °F 11.2 °F 29.87 in SW 2.3 mph   87% 0.00 in 0.0 W/m2 OVC
05:44 14.4 °F 11.2 °F 29.87 in South 2.3 mph   87% 0.00 in 0.0 W/m2 OVC
05:49 14.4 °F 11.2 °F 29.87 in Calm     87% 0.00 in 0.0 W/m2 OVC
05:54 14.4 °F 11.5 °F 29.86 in Calm     88% 0.00 in 0.0 W/m2 OVC
05:59 14.4 °F 11.8 °F 29.86 in Calm     89% 0.00 in 0.0 W/m2 OVC
06:04 14.4 °F 11.8 °F 29.86 in Calm     89% 0.00 in 0.0 W/m2 -SN
06:09 14.5 °F 12.1 °F 29.87 in Calm     90% 0.00 in 0.0 W/m2 -SN
06:14 14.5 °F 12.4 °F 29.87 in Calm     91% 0.00 in 0.0 W/m2 -SN
06:19 14.5 °F 12.6 °F 29.87 in Calm     92% 0.00 in 0.0 W/m2 -SN
06:24 14.5 °F 12.6 °F 29.87 in WSW 1.2 mph   92% 0.00 in 0.0 W/m2 -SN
06:29 14.5 °F 12.8 °F 29.87 in WSW 1.2 mph   93% 0.00 in 0.0 W/m2 -SN
06:34 14.7 °F 13.3 °F 29.87 in Calm     94% 0.00 in 0.0 W/m2 -SN
06:39 14.7 °F 13.3 °F 29.87 in Calm     94% 0.00 in 0.0 W/m2 -SN
06:44 14.9 °F 13.5 °F 29.86 in Calm     94% 0.00 in 0.0 W/m2 -SN
06:49 14.9 °F 13.5 °F 29.86 in Calm     94% 0.00 in 0.0 W/m2 -SN
06:54 14.9 °F 13.7 °F 29.86 in SSW 1.2 mph   95% 0.00 in 0.0 W/m2 -SN
06:59 14.9 °F 13.7 °F 29.86 in South 1.2 mph   95% 0.00 in 0.0 W/m2 -SN
07:04 14.9 °F 13.7 °F 29.86 in Calm     95% 0.00 in 0.0 W/m2 -SN
07:09 14.9 °F 13.7 °F 29.85 in Calm     95% 0.00 in 0.0 W/m2 -SN
07:14 14.9 °F 13.7 °F 29.85 in Calm     95% 0.00 in 0.0 W/m2 -SN
07:19 15.1 °F 14.2 °F 29.84 in Calm     96% 0.00 in 0.0 W/m2 -SN
07:24 15.1 °F 13.9 °F 29.84 in Calm     95% 0.00 in 0.0 W/m2 -SN
Juneau County Weather
Compliments of Weather Underground - 4.5 mb